createdAt,value
2022-09-28T03:39:20.388Z,9.302628
2022-09-28T03:40:24.263Z,9.302672
2022-09-28T03:41:21.186Z,9.302711
2022-09-28T03:42:22.015Z,9.302804
2022-09-28T03:43:20.334Z,9.302501
2022-09-28T03:44:20.263Z,9.302290
2022-09-28T03:45:22.742Z,9.302372
2022-09-28T03:46:20.525Z,9.302346
2022-09-28T03:47:20.856Z,9.302407
2022-09-28T03:48:24.508Z,9.302542
2022-09-28T03:49:21.738Z,9.302788
2022-09-28T03:50:22.396Z,9.302795
2022-09-28T03:51:20.179Z,9.302700
2022-09-28T03:52:20.308Z,9.302905
2022-09-28T03:53:20.659Z,9.303026
2022-09-28T03:54:21.207Z,9.302927
2022-09-28T03:55:20.365Z,9.302918
2022-09-28T03:56:23.479Z,9.302997
2022-09-28T03:57:21.648Z,9.302967
2022-09-28T03:58:20.553Z,9.302974
2022-09-28T03:59:20.514Z,9.302937
2022-09-28T04:00:20.173Z,9.302872
2022-09-28T04:01:23.839Z,9.302979
2022-09-28T04:02:20.385Z,9.303028
2022-09-28T04:03:20.334Z,9.302929
2022-09-28T04:04:21.188Z,9.302988
2022-09-28T04:05:20.287Z,9.303004
2022-09-28T04:06:22.181Z,9.303031
2022-09-28T04:07:20.893Z,9.302958
2022-09-28T04:08:20.215Z,9.302840
2022-09-28T04:09:20.495Z,9.303024
2022-09-28T04:10:20.112Z,9.302957
2022-09-28T04:11:20.591Z,9.303011
2022-09-28T04:12:20.031Z,9.303051
2022-09-28T04:13:20.454Z,9.303167
2022-09-28T04:14:22.233Z,9.303044
2022-09-28T04:15:20.322Z,9.302958
2022-09-28T04:16:20.059Z,9.303139
2022-09-28T04:17:21.897Z,9.303136
2022-09-28T04:18:20.603Z,9.302983
2022-09-28T04:19:20.305Z,9.303001
2022-09-28T04:20:21.032Z,9.303153
2022-09-28T04:21:20.048Z,9.303144
2022-09-28T04:22:20.048Z,9.303016
2022-09-28T04:23:20.543Z,9.303095
2022-09-28T04:24:19.744Z,9.303099
2022-09-28T04:25:20.716Z,9.303005
2022-09-28T04:26:19.896Z,9.302986
2022-09-28T04:27:19.875Z,9.303050
2022-09-28T04:28:19.843Z,9.302944
2022-09-28T04:29:19.949Z,9.303019
2022-09-28T04:30:19.919Z,9.302994
2022-09-28T04:31:19.751Z,9.303027
2022-09-28T04:32:20.650Z,9.302918
2022-09-28T04:33:19.927Z,9.302989
2022-09-28T04:34:19.787Z,9.302990
2022-09-28T04:35:19.604Z,9.303043
2022-09-28T04:36:19.684Z,9.302903
2022-09-28T04:37:19.702Z,9.302973
2022-09-28T04:38:30.831Z,9.303016
2022-09-28T04:39:21.643Z,9.302924
2022-09-28T04:40:19.690Z,9.302876
2022-09-28T04:41:19.567Z,9.302987
2022-09-28T04:42:19.673Z,9.303001
2022-09-28T04:43:19.540Z,9.303028
2022-09-28T04:44:19.597Z,9.302896
2022-09-28T04:45:19.518Z,9.302923
2022-09-28T04:46:19.574Z,9.303166
2022-09-28T04:47:19.601Z,9.303018
2022-09-28T04:48:19.483Z,9.302837
2022-09-28T04:49:19.664Z,9.303050
2022-09-28T04:50:19.527Z,9.303139
2022-09-28T04:51:19.553Z,9.302890
2022-09-28T04:52:19.473Z,9.302938
2022-09-28T04:53:19.499Z,9.303005
2022-09-28T04:54:19.621Z,9.302990
2022-09-28T04:55:19.375Z,9.303081
2022-09-28T04:56:19.434Z,9.303037
2022-09-28T04:57:19.400Z,9.303069
2022-09-28T04:58:19.597Z,9.303081
2022-09-28T04:59:19.361Z,9.303043
2022-09-28T05:00:19.328Z,9.303071
2022-09-28T05:01:20.304Z,9.303164
2022-09-28T05:02:19.583Z,9.303139
2022-09-28T05:03:19.681Z,9.303145
2022-09-28T05:04:22.385Z,9.303050
2022-09-28T05:05:21.457Z,9.303019
2022-09-28T05:06:19.320Z,9.303074
2022-09-28T05:07:19.406Z,9.303161
2022-09-28T05:08:20.187Z,9.303068
2022-09-28T05:09:19.356Z,9.303050
2022-09-28T05:10:19.499Z,9.303127
2022-09-28T05:11:19.236Z,9.303040
2022-09-28T05:12:19.217Z,9.303094
2022-09-28T05:13:19.211Z,9.303076
2022-09-28T05:14:19.194Z,9.303149
2022-09-28T05:15:19.181Z,9.303117
2022-09-28T05:16:19.240Z,9.303057
2022-09-28T05:17:19.198Z,9.303065
2022-09-28T05:18:19.131Z,9.303054
2022-09-28T05:19:19.139Z,9.303056
2022-09-28T05:20:20.897Z,9.302984
2022-09-28T05:21:19.118Z,9.303005
2022-09-28T05:22:19.141Z,9.303084
2022-09-28T05:23:19.166Z,9.303038
2022-09-28T05:24:19.084Z,9.302994
2022-09-28T05:25:19.030Z,9.303017
2022-09-28T05:26:19.088Z,9.303085
2022-09-28T05:27:19.127Z,9.303047
2022-09-28T05:28:19.102Z,9.303143
2022-09-28T05:29:19.059Z,9.303042
2022-09-28T05:30:19.732Z,9.303011
2022-09-28T05:31:19.101Z,9.303173
2022-09-28T05:32:19.051Z,9.303108
2022-09-28T05:33:19.025Z,9.302945
2022-09-28T05:34:19.165Z,9.303036
2022-09-28T05:35:18.982Z,9.303045
2022-09-28T05:36:19.009Z,9.303152
2022-09-28T05:37:19.688Z,9.303058
2022-09-28T05:38:18.969Z,9.303078
2022-09-28T05:39:19.582Z,9.303064
2022-09-28T05:40:18.991Z,9.303083
2022-09-28T05:41:18.922Z,9.303036
2022-09-28T05:42:19.038Z,9.302990
2022-09-28T05:43:19.038Z,9.303068
2022-09-28T05:44:19.080Z,9.303075
2022-09-28T05:45:18.881Z,9.303048
2022-09-28T05:46:19.638Z,9.303062
2022-09-28T05:47:18.885Z,9.303104
2022-09-28T05:48:18.894Z,9.303102
2022-09-28T05:49:18.867Z,9.303080
2022-09-28T05:50:19.855Z,9.303083
2022-09-28T05:51:18.899Z,9.303021
2022-09-28T05:52:18.819Z,9.302977
2022-09-28T05:53:18.857Z,9.303053
2022-09-28T05:54:18.934Z,9.302979
2022-09-28T05:55:18.843Z,9.302913
2022-09-28T05:56:18.752Z,9.302831
2022-09-28T05:57:18.825Z,9.302901
2022-09-28T05:58:18.880Z,9.302950
2022-09-28T05:59:18.703Z,9.303041
2022-09-28T06:00:18.875Z,9.302938
2022-09-28T06:01:18.759Z,9.302961
2022-09-28T06:02:18.753Z,9.303010
2022-09-28T06:03:18.797Z,9.303006
2022-09-28T06:04:19.036Z,9.302995
2022-09-28T06:05:18.799Z,9.303015
2022-09-28T06:06:19.147Z,9.302932
2022-09-28T06:07:18.771Z,9.302986
2022-09-28T06:08:18.698Z,9.302999
2022-09-28T06:09:21.627Z,9.303004
2022-09-28T06:10:19.369Z,9.302923
2022-09-28T06:11:18.715Z,9.302996
2022-09-28T06:12:18.747Z,9.302953
2022-09-28T06:13:19.406Z,9.303041
2022-09-28T06:14:18.727Z,9.303048
2022-09-28T06:15:18.753Z,9.303029
2022-09-28T06:16:18.782Z,9.303044
2022-09-28T06:17:18.843Z,9.303028
2022-09-28T06:18:19.857Z,9.302924
2022-09-28T06:19:18.819Z,9.302972
2022-09-28T06:20:18.688Z,9.303045
2022-09-28T06:21:18.982Z,9.302987
2022-09-28T06:22:19.085Z,9.303095
2022-09-28T06:23:18.946Z,9.303013
2022-09-28T06:24:18.781Z,9.303023
2022-09-28T06:25:18.719Z,9.302974
2022-09-28T06:26:18.783Z,9.303003
2022-09-28T06:27:18.827Z,9.303071
2022-09-28T06:28:18.853Z,9.303111
2022-09-28T06:29:19.571Z,9.303073
2022-09-28T06:30:19.554Z,9.302971
2022-09-28T06:31:18.795Z,9.302938
2022-09-28T06:32:18.963Z,9.303002
2022-09-28T06:33:18.569Z,9.302958
2022-09-28T06:34:18.687Z,9.302958
2022-09-28T06:35:19.023Z,9.302973
2022-09-28T06:36:18.661Z,9.302999
2022-09-28T06:37:18.581Z,9.302938
2022-09-28T06:38:19.308Z,9.302943
2022-09-28T06:39:18.656Z,9.302985
2022-09-28T06:40:18.565Z,9.302954
2022-09-28T06:41:18.623Z,9.302892
2022-09-28T06:42:18.478Z,9.302929
2022-09-28T06:43:18.935Z,9.302891
2022-09-28T06:44:18.961Z,9.302999
2022-09-28T06:45:18.510Z,9.302923
2022-09-28T06:46:20.052Z,9.303039
2022-09-28T06:47:19.020Z,9.302912
2022-09-28T06:48:18.359Z,9.302979
2022-09-28T06:49:19.546Z,9.302910
2022-09-28T06:50:18.933Z,9.303006
2022-09-28T06:51:19.674Z,9.303022
2022-09-28T06:52:19.096Z,9.303028
2022-09-28T06:53:19.471Z,9.303056
2022-09-28T06:54:33.354Z,9.303045
2022-09-28T06:55:20.685Z,9.303031
2022-09-28T06:56:18.677Z,9.303029
2022-09-28T06:57:18.625Z,9.303014
2022-09-28T06:58:40.610Z,9.302983
2022-09-28T06:59:18.257Z,9.302947
2022-09-28T07:00:18.258Z,9.302872
2022-09-28T07:01:18.338Z,9.303051
2022-09-28T07:02:18.270Z,9.303086
2022-09-28T07:03:18.280Z,9.302941
2022-09-28T07:04:18.922Z,9.302982
2022-09-28T07:05:18.342Z,9.303032
2022-09-28T07:06:18.330Z,9.303063
2022-09-28T07:07:18.128Z,9.303070
2022-09-28T07:08:18.182Z,9.303150
2022-09-28T07:09:33.064Z,9.303117
2022-09-28T07:10:20.328Z,9.303015
2022-09-28T07:11:18.614Z,9.303029
2022-09-28T07:12:18.363Z,9.303022
2022-09-28T07:13:44.716Z,9.303016
2022-09-28T07:14:35.473Z,9.303024
2022-09-28T07:15:20.191Z,9.303124
2022-09-28T07:16:21.563Z,9.303124
2022-09-28T07:17:18.360Z,9.303093
2022-09-28T07:18:18.341Z,9.303065
2022-09-28T07:19:18.515Z,9.303108
2022-09-28T07:20:19.640Z,9.302952
2022-09-28T07:21:27.676Z,9.302997
2022-09-28T07:22:21.434Z,9.303201
2022-09-28T07:23:20.133Z,9.303189
2022-09-28T07:24:20.224Z,9.303120
2022-09-28T07:25:18.328Z,9.303051
2022-09-28T07:26:21.002Z,9.303065
2022-09-28T07:27:20.108Z,9.303203
2022-09-28T07:28:17.963Z,9.302975
2022-09-28T07:29:17.860Z,9.302963
2022-09-28T07:30:18.878Z,9.303007
2022-09-28T07:31:18.457Z,9.303059
2022-09-28T07:32:18.007Z,9.303010
2022-09-28T07:33:17.866Z,9.302976
2022-09-28T07:34:17.875Z,9.303125
2022-09-28T07:35:17.861Z,9.303068
2022-09-28T07:36:19.675Z,9.303069
2022-09-28T07:37:18.040Z,9.303084
2022-09-28T07:38:17.793Z,9.303075
2022-09-28T07:39:17.792Z,9.303100
2022-09-28T07:40:19.837Z,9.303106
2022-09-28T07:41:18.123Z,9.303014
2022-09-28T07:42:17.943Z,9.302999
2022-09-28T07:43:17.999Z,9.303009
2022-09-28T07:44:18.003Z,9.303037
2022-09-28T07:45:18.288Z,9.303056
2022-09-28T07:46:18.432Z,9.303035
2022-09-28T07:47:17.675Z,9.303098
2022-09-28T07:48:17.790Z,9.303007
2022-09-28T07:49:18.343Z,9.303125
2022-09-28T07:50:17.810Z,9.303004
2022-09-28T07:51:19.072Z,9.302980
2022-09-28T07:52:17.633Z,9.303062
2022-09-28T07:53:20.538Z,9.303167
2022-09-28T07:54:18.962Z,9.303170
2022-09-28T07:55:18.346Z,9.303044
2022-09-28T07:56:18.400Z,9.303096
2022-09-28T07:57:17.632Z,9.303046
2022-09-28T07:58:19.215Z,9.303107
2022-09-28T07:59:17.770Z,9.302954
2022-09-28T08:00:17.528Z,9.302965
2022-09-28T08:01:17.698Z,9.302924
2022-09-28T08:02:18.281Z,9.302914
2022-09-28T08:03:21.075Z,9.302895
2022-09-28T08:04:19.608Z,9.302899
2022-09-28T08:05:19.795Z,9.302998
2022-09-28T08:06:21.808Z,9.303042
2022-09-28T08:07:20.464Z,9.303104
2022-09-28T08:08:21.681Z,9.303047
2022-09-28T08:09:19.316Z,9.303065
2022-09-28T08:10:17.517Z,9.303103
2022-09-28T08:11:17.593Z,9.303001
2022-09-28T08:12:17.752Z,9.303029
2022-09-28T08:13:19.169Z,9.303116
2022-09-28T08:14:18.771Z,9.303034
2022-09-28T08:15:17.821Z,9.303108
2022-09-28T08:16:17.852Z,9.303144
2022-09-28T08:17:17.463Z,9.303044
2022-09-28T08:18:17.509Z,9.303141
2022-09-28T08:19:17.650Z,9.303061
2022-09-28T08:20:17.339Z,9.302997
2022-09-28T08:21:17.503Z,9.303013
2022-09-28T08:22:17.982Z,9.303020
2022-09-28T08:23:17.643Z,9.303047
2022-09-28T08:24:17.443Z,9.303031
2022-09-28T08:25:17.542Z,9.303039
2022-09-28T08:26:17.576Z,9.303065
2022-09-28T08:27:17.362Z,9.303074
2022-09-28T08:28:17.875Z,9.303172
2022-09-28T08:29:17.531Z,9.303071
2022-09-28T08:30:17.372Z,9.302951
2022-09-28T08:31:18.407Z,9.302925
2022-09-28T08:32:17.411Z,9.303081
2022-09-28T08:33:17.261Z,9.303102
2022-09-28T08:34:17.394Z,9.302947
2022-09-28T08:35:17.440Z,9.303101
2022-09-28T08:36:18.336Z,9.303044
2022-09-28T08:37:17.248Z,9.303028
2022-09-28T08:38:17.410Z,9.302915
2022-09-28T08:39:17.262Z,9.302926
2022-09-28T08:40:17.477Z,9.303042
2022-09-28T08:41:17.212Z,9.303003
2022-09-28T08:42:17.217Z,9.302867
2022-09-28T08:43:17.227Z,9.302935
2022-09-28T08:44:17.356Z,9.302921
2022-09-28T08:45:17.266Z,9.303031
2022-09-28T08:46:17.287Z,9.303008
2022-09-28T08:47:17.276Z,9.302868
2022-09-28T08:48:17.178Z,9.302934
2022-09-28T08:49:30.952Z,9.302898
2022-09-28T08:50:19.441Z,9.303041
2022-09-28T08:51:17.250Z,9.302899
2022-09-28T08:52:17.346Z,9.302908
2022-09-28T08:53:17.298Z,9.303010
2022-09-28T08:54:18.175Z,9.302972
2022-09-28T08:55:17.828Z,9.302973
2022-09-28T08:56:22.393Z,9.303013
2022-09-28T08:57:17.489Z,9.303028
2022-09-28T08:58:17.219Z,9.302990
2022-09-28T08:59:17.636Z,9.303017
2022-09-28T09:00:17.310Z,9.303074
2022-09-28T09:01:17.297Z,9.303035
2022-09-28T09:02:17.434Z,9.302980
2022-09-28T09:03:18.511Z,9.303157
2022-09-28T09:04:19.290Z,9.303123
2022-09-28T09:05:22.979Z,9.302970
2022-09-28T09:06:19.634Z,9.303053
2022-09-28T09:07:20.195Z,9.303095
2022-09-28T09:08:18.065Z,9.302999
2022-09-28T09:09:18.611Z,9.302849
2022-09-28T09:10:18.666Z,9.302966
2022-09-28T09:11:20.689Z,9.302961
2022-09-28T09:12:17.822Z,9.303020
2022-09-28T09:13:18.937Z,9.303001
2022-09-28T09:14:17.920Z,9.302999
2022-09-28T09:15:22.845Z,9.303076
2022-09-28T09:16:18.666Z,9.303004
2022-09-28T09:17:17.744Z,9.303061
2022-09-28T09:18:20.153Z,9.303041
2022-09-28T09:19:18.648Z,9.303066
2022-09-28T09:20:16.956Z,9.303127
2022-09-28T09:21:16.973Z,9.303118
2022-09-28T09:22:17.073Z,9.303109
2022-09-28T09:23:16.838Z,9.303109
2022-09-28T09:24:16.911Z,9.303135
2022-09-28T09:25:16.949Z,9.303128
2022-09-28T09:26:21.765Z,9.303016
2022-09-28T09:27:17.812Z,9.303101
2022-09-28T09:28:18.192Z,9.303058
2022-09-28T09:29:16.770Z,9.303007
2022-09-28T09:30:20.712Z,9.302995
2022-09-28T09:31:20.725Z,9.303165
2022-09-28T09:32:19.993Z,9.303004
2022-09-28T09:33:17.407Z,9.303048
2022-09-28T09:34:16.991Z,9.302994
2022-09-28T09:35:17.862Z,9.302895
2022-09-28T09:36:17.311Z,9.302911
2022-09-28T09:37:17.649Z,9.302927
2022-09-28T09:38:17.662Z,9.302834
2022-09-28T09:39:17.903Z,9.302803
2022-09-28T09:40:16.954Z,9.302767
2022-09-28T09:41:16.782Z,9.302846
2022-09-28T09:42:16.705Z,9.303010
2022-09-28T09:43:16.579Z,9.302967
2022-09-28T09:44:16.770Z,9.303004
2022-09-28T09:45:16.631Z,9.302864
2022-09-28T09:46:16.691Z,9.303194
2022-09-28T09:47:16.565Z,9.303023
2022-09-28T09:48:16.749Z,9.303069
2022-09-28T09:49:16.708Z,9.302947
2022-09-28T09:50:16.735Z,9.302921
2022-09-28T09:51:17.573Z,9.302978
2022-09-28T09:52:16.444Z,9.302979
2022-09-28T09:53:16.541Z,9.302923
2022-09-28T09:54:16.688Z,9.302894
2022-09-28T09:55:16.495Z,9.303107
2022-09-28T09:56:16.504Z,9.303022
2022-09-28T09:57:16.855Z,9.302995
2022-09-28T09:58:16.520Z,9.302958
2022-09-28T09:59:17.578Z,9.303005
2022-09-28T10:00:16.837Z,9.303141
2022-09-28T10:01:16.627Z,9.303059
2022-09-28T10:02:16.526Z,9.303032
2022-09-28T10:03:16.634Z,9.303052
2022-09-28T10:04:16.439Z,9.303085
2022-09-28T10:05:16.517Z,9.302894
2022-09-28T10:06:16.480Z,9.302983
2022-09-28T10:07:16.324Z,9.303079
2022-09-28T10:08:16.458Z,9.302945
2022-09-28T10:09:16.408Z,9.302995
2022-09-28T10:10:16.295Z,9.302878
2022-09-28T10:11:16.536Z,9.302982
2022-09-28T10:12:16.422Z,9.303080
2022-09-28T10:13:16.449Z,9.303113
2022-09-28T10:14:16.371Z,9.303144
2022-09-28T10:15:16.564Z,9.303114
2022-09-28T10:16:16.289Z,9.303146
2022-09-28T10:17:22.879Z,9.303072
2022-09-28T10:18:16.981Z,9.303097
2022-09-28T10:19:16.275Z,9.303136
2022-09-28T10:20:16.402Z,9.303198
2022-09-28T10:21:16.186Z,9.302968
2022-09-28T10:22:16.496Z,9.303003
2022-09-28T10:23:16.243Z,9.303094
2022-09-28T10:24:16.175Z,9.303169
2022-09-28T10:25:16.216Z,9.303160
2022-09-28T10:26:16.174Z,9.303076
2022-09-28T10:27:17.314Z,9.303126
2022-09-28T10:28:29.081Z,9.303078
2022-09-28T10:29:17.402Z,9.303062
2022-09-28T10:30:16.202Z,9.303059
2022-09-28T10:31:16.252Z,9.303040
2022-09-28T10:32:17.253Z,9.303129
2022-09-28T10:33:17.384Z,9.303164
2022-09-28T10:34:16.318Z,9.303192
2022-09-28T10:42:54.489Z,9.303355
2022-09-28T10:43:58.176Z,9.303177
2022-09-28T10:44:57.674Z,9.303226
2022-09-28T10:46:48.946Z,9.303304
2022-09-28T10:48:55.947Z,9.303304
2022-09-28T10:48:59.386Z,9.303304
2022-09-28T10:50:03.500Z,9.303345
2022-09-28T10:51:00.437Z,9.303465
2022-09-28T10:52:03.732Z,9.303327
2022-09-28T10:53:16.061Z,9.303265
2022-09-28T10:54:51.594Z,9.302826
2022-09-28T10:55:55.842Z,9.302905
2022-09-28T10:56:14.362Z,9.302905
2022-09-28T10:57:10.302Z,9.303177
2022-09-28T10:58:05.462Z,9.303169
2022-09-28T10:59:06.539Z,9.303215
2022-09-28T11:01:55.302Z,9.303281
2022-09-28T11:02:25.918Z,9.303281
2022-09-28T11:17:19.555Z,9.303201
2022-09-28T11:18:32.456Z,9.303226
2022-09-28T11:19:29.158Z,9.303128
2022-09-28T11:20:16.963Z,9.303185
2022-09-28T11:21:19.288Z,9.303169
2022-09-28T11:22:18.935Z,9.303118
2022-09-28T11:23:25.771Z,9.303129
2022-09-28T11:24:34.346Z,9.303076
2022-09-28T11:25:31.360Z,9.303098
2022-09-28T11:26:55.231Z,9.303077
2022-09-28T11:27:38.228Z,9.303037
2022-09-28T11:28:42.465Z,9.303111
2022-09-28T11:58:15.897Z,9.303613
2022-09-28T11:59:01.739Z,9.303214
2022-09-28T12:14:41.226Z,9.303444
2022-09-28T12:15:25.749Z,9.303444
2022-09-28T12:23:28.638Z,9.303208
2022-09-28T12:23:58.879Z,9.303248
2022-09-28T12:24:54.570Z,9.303320
2022-09-28T12:26:23.685Z,9.303370
2022-09-28T12:27:08.975Z,9.303368
2022-09-28T12:27:57.651Z,9.303416
2022-09-28T12:29:02.576Z,9.303074
2022-09-28T12:30:01.350Z,9.303102
2022-09-28T12:30:57.908Z,9.303250
2022-09-28T12:31:55.936Z,9.303110
2022-09-28T12:32:58.766Z,9.303281
2022-09-28T12:34:05.667Z,9.303139
2022-09-28T12:34:57.934Z,9.303214
2022-09-28T12:36:03.493Z,9.303125
2022-09-28T12:37:05.452Z,9.303193
2022-09-28T12:37:59.161Z,9.303191
2022-09-28T12:41:57.075Z,9.303113
2022-09-28T12:42:25.987Z,9.303023
2022-09-28T12:43:24.847Z,9.302945
2022-09-28T12:44:18.078Z,9.303007
2022-09-28T12:46:09.754Z,9.303105
2022-09-28T12:46:16.115Z,9.303187
2022-09-28T12:47:43.475Z,9.303177
2022-09-28T12:48:35.452Z,9.303111
2022-09-28T12:50:13.774Z,9.303146
2022-09-28T12:50:44.030Z,9.303175
2022-09-28T12:51:11.122Z,9.303128
2022-09-28T12:52:08.940Z,9.303177
2022-09-28T12:53:41.700Z,9.303185
2022-09-28T12:54:09.286Z,9.303191
2022-09-28T12:55:42.926Z,9.303333
2022-09-28T12:56:36.819Z,9.303212
2022-09-28T12:57:09.322Z,9.303154
2022-09-28T12:58:09.715Z,9.303144
2022-09-28T12:59:08.886Z,9.303100
2022-09-28T13:00:08.782Z,9.303187
2022-09-28T13:01:08.814Z,9.303174
2022-09-28T13:02:08.776Z,9.303205
2022-09-28T13:03:09.495Z,9.303130
2022-09-28T13:04:44.960Z,9.303077
2022-09-28T13:07:22.048Z,9.303077
2022-09-28T13:07:44.786Z,9.303077
2022-09-28T13:09:07.171Z,9.303134
2022-09-28T13:10:19.637Z,9.303199
2022-09-28T13:10:41.750Z,9.303199
2022-09-28T13:12:18.227Z,9.303127
2022-09-28T13:12:48.599Z,9.303035
2022-09-28T13:14:09.707Z,9.303040
2022-09-28T13:19:20.602Z,9.303173
2022-09-28T13:20:18.962Z,9.302928
2022-09-28T13:21:18.974Z,9.302987
2022-09-28T13:22:18.984Z,9.303074
2022-09-28T13:23:18.947Z,9.302983
2022-09-28T13:24:31.084Z,9.302998
2022-09-28T13:24:48.264Z,9.303021
2022-09-28T13:26:19.171Z,9.303035
2022-09-28T13:26:47.620Z,9.303046
2022-09-28T13:27:46.380Z,9.303041
2022-09-28T13:29:20.425Z,9.303039
2022-09-28T13:29:46.707Z,9.302979
2022-09-28T13:31:20.027Z,9.303120
2022-09-28T13:31:46.661Z,9.303078
2022-09-28T13:32:47.585Z,9.303171
2022-09-28T13:33:46.361Z,9.303077
2022-09-28T13:35:20.020Z,9.303072
2022-09-28T13:35:48.747Z,9.303020
2022-09-28T13:37:18.970Z,9.303101
2022-09-28T13:37:47.061Z,9.303081
2022-09-28T13:38:46.429Z,9.303115
2022-09-28T13:39:46.633Z,9.303067
2022-09-28T13:41:18.729Z,9.303101
2022-09-28T13:41:46.610Z,9.303129
2022-09-28T13:43:19.698Z,9.302973
2022-09-28T13:43:46.488Z,9.303064
2022-09-28T13:44:46.575Z,9.303162
2022-09-28T13:45:46.323Z,9.303100
2022-09-28T13:46:46.237Z,9.303185
2022-09-28T13:47:46.175Z,9.303101
2022-09-28T13:48:46.176Z,9.303030
2022-09-28T13:49:46.163Z,9.302999
2022-09-28T13:50:46.368Z,9.303066
2022-09-28T13:51:46.263Z,9.303070
2022-09-28T13:52:46.112Z,9.303045
2022-09-28T13:54:14.788Z,9.302898
2022-09-28T13:54:46.327Z,9.303028
2022-09-28T13:55:46.413Z,9.303032
2022-09-28T13:56:46.077Z,9.303074
2022-09-28T13:57:46.053Z,9.302931
2022-09-28T13:58:46.044Z,9.302980
2022-09-28T14:00:19.949Z,9.303119
2022-09-28T14:01:32.787Z,9.302979
2022-09-28T14:01:46.774Z,9.303092
2022-09-28T14:02:47.045Z,9.303084
2022-09-28T14:03:46.123Z,9.303050
2022-09-28T14:04:46.626Z,9.302991
2022-09-28T14:05:45.955Z,9.303060
2022-09-28T14:06:48.772Z,9.302949
2022-09-28T14:08:18.914Z,9.302988
2022-09-28T14:08:46.418Z,9.303020
2022-09-28T14:09:46.368Z,9.302905
2022-09-28T14:10:46.060Z,9.302941
2022-09-28T14:12:18.489Z,9.303020
2022-09-28T14:13:22.234Z,9.302951
2022-09-28T14:14:18.490Z,9.302966
2022-09-28T14:14:46.185Z,9.303049
2022-09-28T14:16:19.473Z,9.303003
2022-09-28T14:17:18.612Z,9.303061
2022-09-28T14:17:45.909Z,9.303046
2022-09-28T14:19:18.405Z,9.303021
2022-09-28T14:20:20.206Z,9.303067
2022-09-28T14:21:19.566Z,9.303038
2022-09-28T14:22:18.310Z,9.303118
2022-09-28T14:23:18.623Z,9.303073
2022-09-28T14:24:18.440Z,9.302991
2022-09-28T14:25:20.561Z,9.303131
2022-09-28T14:26:12.269Z,9.303040
2022-09-28T14:27:19.312Z,9.303172
2022-09-28T14:28:19.279Z,9.302984
2022-09-28T14:29:19.468Z,9.302986
2022-09-28T14:29:45.908Z,9.302948
2022-09-28T14:31:18.405Z,9.302984
2022-09-28T14:32:19.625Z,9.303000
2022-09-28T14:32:46.957Z,9.303006
2022-09-28T14:34:17.024Z,9.303033
2022-09-28T14:35:13.493Z,9.303007
2022-09-28T14:36:04.972Z,9.303086
2022-09-28T14:36:50.503Z,9.303030
2022-09-28T14:39:29.832Z,9.303194
2022-09-28T14:40:09.837Z,9.303194
2022-09-28T14:40:52.211Z,9.302868
2022-09-28T14:42:34.591Z,9.302976
2022-09-28T14:52:16.031Z,9.303000
2022-09-28T14:52:24.257Z,9.303000
2022-09-28T14:53:39.425Z,9.302996
2022-09-28T14:55:22.867Z,9.302969
2022-09-28T14:56:13.608Z,9.302969
2022-09-28T14:56:47.568Z,9.303059
2022-09-28T14:57:36.043Z,9.302987
2022-09-28T14:59:10.705Z,9.302946
2022-09-28T15:00:19.455Z,9.302925
2022-09-28T15:00:38.336Z,9.302881
2022-09-28T15:01:51.240Z,9.302909
2022-09-28T15:02:32.741Z,9.302872
2022-09-28T15:03:33.240Z,9.302854
2022-09-28T15:04:35.855Z,9.302973
2022-09-28T15:05:35.212Z,9.302969
2022-09-28T15:06:39.515Z,9.302961
2022-09-28T15:08:09.234Z,9.302968
2022-09-28T15:08:53.236Z,9.302951
2022-09-28T15:10:00.888Z,9.302980
2022-09-28T15:10:34.893Z,9.303064
2022-09-28T15:11:44.319Z,9.302974
2022-09-28T15:13:53.155Z,9.302896
2022-09-28T15:14:44.198Z,9.302896
2022-09-28T15:15:08.387Z,9.303149
2022-09-28T15:16:04.592Z,9.303088
2022-09-28T15:17:15.241Z,9.303126
2022-09-28T15:18:18.116Z,9.303093
2022-09-28T15:19:02.498Z,9.303101
2022-09-28T15:20:03.696Z,9.303139
2022-09-28T15:21:04.890Z,9.303118
2022-09-28T15:22:13.814Z,9.303040
2022-09-28T15:23:20.931Z,9.303099
2022-09-28T15:24:01.138Z,9.303132
2022-09-28T15:45:18.622Z,9.303379
2022-09-28T15:48:21.406Z,9.303379
2022-09-28T15:49:12.553Z,9.303633
2022-09-28T15:50:38.002Z,9.303021
2022-09-28T16:15:00.806Z,9.302995
2022-09-28T16:15:21.672Z,9.302995
2022-09-28T16:16:29.155Z,9.303107
2022-09-28T16:17:18.188Z,9.303206
2022-09-28T16:18:12.226Z,9.302876
2022-09-28T17:30:39.275Z,9.303035
2022-09-28T17:31:33.898Z,9.303259
2022-09-28T17:32:32.115Z,9.303186
2022-09-28T17:33:32.533Z,9.303128
2022-09-28T17:34:40.909Z,9.303106
2022-09-28T17:36:14.411Z,9.303018
2022-09-28T17:36:36.865Z,9.303092
2022-09-28T17:37:34.104Z,9.303158
2022-09-28T17:42:35.064Z,9.303136
2022-09-28T17:43:35.334Z,9.303020
2022-09-28T17:44:34.962Z,9.303091
2022-09-28T17:45:35.023Z,9.303235
2022-09-28T17:46:34.945Z,9.303020
2022-09-28T17:47:34.793Z,9.302943
2022-09-28T17:48:34.750Z,9.303120
2022-09-28T17:49:34.718Z,9.302915
2022-09-28T17:50:35.721Z,9.303093
2022-09-28T17:51:34.914Z,9.303104
2022-09-28T17:52:35.099Z,9.303098
2022-09-28T17:53:34.744Z,9.303272
2022-09-28T17:54:35.734Z,9.303176
2022-09-28T17:55:34.821Z,9.303077
2022-09-28T17:56:34.689Z,9.302876
2022-09-28T17:57:34.766Z,9.302832
2022-09-28T17:58:34.627Z,9.303033
2022-09-28T17:59:34.779Z,9.303130
2022-09-28T18:00:34.854Z,9.303065
2022-09-28T18:01:34.987Z,9.303082
2022-09-28T18:02:35.254Z,9.303107
2022-09-28T18:03:34.687Z,9.303038
2022-09-28T18:04:51.142Z,9.303090
2022-09-28T18:05:37.316Z,9.303073
2022-09-28T18:06:35.303Z,9.302994
2022-09-28T18:07:34.914Z,9.303022
2022-09-28T18:08:35.001Z,9.303078
2022-09-28T18:09:55.663Z,9.303098
2022-09-28T18:10:38.028Z,9.303087
2022-09-28T18:11:34.861Z,9.303008
2022-09-28T18:12:34.941Z,9.303041
2022-09-28T18:13:34.561Z,9.302965
2022-09-28T18:14:34.848Z,9.303019
2022-09-28T18:15:34.905Z,9.303046
2022-09-28T18:16:35.263Z,9.303087
2022-09-28T18:17:34.954Z,9.303036
2022-09-28T18:18:34.614Z,9.303020
2022-09-28T18:19:34.516Z,9.303090
2022-09-28T18:20:34.581Z,9.303009
2022-09-28T18:21:34.966Z,9.303059
2022-09-28T18:22:34.824Z,9.303069
2022-09-28T18:23:34.609Z,9.303020
2022-09-28T18:24:35.453Z,9.302977
2022-09-28T18:25:35.406Z,9.302976
2022-09-28T18:26:34.591Z,9.303001
2022-09-28T18:27:34.535Z,9.303081
2022-09-28T18:28:34.426Z,9.302989
2022-09-28T18:29:34.538Z,9.303115
2022-09-28T18:30:34.547Z,9.303035
2022-09-28T18:31:34.432Z,9.303039
2022-09-28T18:32:34.298Z,9.303101
2022-09-28T18:33:53.215Z,9.303031
2022-09-28T18:34:34.406Z,9.303096
2022-09-28T18:35:34.463Z,9.303028
2022-09-28T18:36:37.789Z,9.303024
2022-09-28T18:38:07.662Z,9.303043
2022-09-28T18:38:36.022Z,9.303071
2022-09-28T18:39:34.999Z,9.303015
2022-09-28T18:40:34.713Z,9.303034
2022-09-28T18:41:34.716Z,9.302996
2022-09-28T18:42:35.407Z,9.302952
2022-09-28T18:43:36.320Z,9.302966
2022-09-28T18:44:35.382Z,9.303017
2022-09-28T18:45:34.984Z,9.303003
2022-09-28T18:46:34.315Z,9.302981
2022-09-28T18:47:34.411Z,9.302985
2022-09-28T18:48:34.081Z,9.302946
2022-09-28T18:49:34.821Z,9.302959
2022-09-28T18:50:34.145Z,9.303038
2022-09-28T18:51:34.056Z,9.303138
2022-09-28T18:52:35.085Z,9.302985
2022-09-28T18:53:34.108Z,9.303046
2022-09-28T18:54:34.092Z,9.303015
2022-09-28T18:55:34.089Z,9.303086